Time;durP1;ratioP1;P1;durP2;ratioP2;P2;SDS_P1;SDS_P2;PMS_P1;PMS_P2;Temp;Humidity;BMP_temperature;BMP_pressure;BME280_temperature;BME280_humidity;BME280_pressure;Samples;Min_cycle;Max_cycle;Signal;HPM_P1;HPM_P2
2021/04/24 00:00:15;;;;;;;25.33;17.10;;;6.30;99.90;;;;;;5020696;28;20467;-71
2021/04/24 00:02:42;;;;;;;22.00;17.27;;;6.20;99.90;;;;;;5016940;28;20977;-71
2021/04/24 00:05:11;;;;;;;19.77;18.00;;;6.20;99.90;;;;;;5022323;28;20955;-71
2021/04/24 00:07:39;;;;;;;21.87;16.90;;;6.20;99.90;;;;;;5018367;28;20819;-71
2021/04/24 00:10:06;;;;;;;20.80;18.50;;;6.20;99.90;;;;;;5014463;28;20458;-71
2021/04/24 00:12:32;;;;;;;20.53;18.37;;;6.10;99.90;;;;;;5022052;28;20476;-71
2021/04/24 00:15:00;;;;;;;18.70;17.00;;;6.20;99.90;;;;;;5018575;28;20496;-71
2021/04/24 00:17:26;;;;;;;21.37;16.90;;;6.10;99.90;;;;;;5015047;28;20520;-71
2021/04/24 00:19:53;;;;;;;18.97;17.13;;;6.00;99.90;;;;;;5012912;28;20472;-71
2021/04/24 00:22:19;;;;;;;19.07;16.93;;;6.00;99.90;;;;;;5017239;28;20565;-71
2021/04/24 00:24:46;;;;;;;19.70;16.60;;;6.00;99.90;;;;;;5021280;28;20477;-71
2021/04/24 00:27:12;;;;;;;17.90;16.40;;;6.00;99.90;;;;;;5021486;28;20471;-71
2021/04/24 00:29:40;;;;;;;18.70;16.90;;;6.00;99.90;;;;;;5018603;28;20466;-71
2021/04/24 00:32:09;;;;;;;19.50;17.40;;;5.90;99.90;;;;;;5017353;28;20532;-71
2021/04/24 00:34:35;;;;;;;21.07;17.23;;;5.80;99.90;;;;;;5018384;28;20492;-71
2021/04/24 00:37:01;;;;;;;20.30;17.03;;;5.80;99.90;;;;;;5021048;28;20496;-71
2021/04/24 00:39:28;;;;;;;18.47;16.67;;;5.70;99.90;;;;;;5018438;28;20865;-71
2021/04/24 00:41:54;;;;;;;19.03;17.07;;;5.60;99.90;;;;;;5021791;28;20478;-71
2021/04/24 00:44:20;;;;;;;18.60;16.70;;;5.60;99.90;;;;;;5017346;28;20465;-71
2021/04/24 00:46:47;;;;;;;18.60;17.00;;;5.60;99.90;;;;;;5024146;28;20461;-71
2021/04/24 00:49:14;;;;;;;18.90;17.30;;;5.60;99.90;;;;;;5027072;28;21002;-71
2021/04/24 00:51:41;;;;;;;19.83;18.00;;;5.60;99.90;;;;;;5020636;28;20967;-71
2021/04/24 00:54:08;;;;;;;17.93;16.20;;;5.50;99.90;;;;;;5017215;28;20468;-71
2021/04/24 00:56:35;;;;;;;18.60;16.90;;;5.50;99.90;;;;;;5018473;28;20465;-71
2021/04/24 00:59:02;;;;;;;19.10;17.20;;;5.50;99.90;;;;;;5025562;28;20475;-71
2021/04/24 01:01:28;;;;;;;18.33;16.50;;;5.40;99.90;;;;;;5020493;28;20461;-71
2021/04/24 01:03:56;;;;;;;19.30;17.30;;;5.50;99.90;;;;;;5018809;28;20457;-71
2021/04/24 01:06:23;;;;;;;18.60;17.07;;;5.40;99.90;;;;;;5024008;28;20483;-71
2021/04/24 01:08:50;;;;;;;18.30;16.50;;;5.40;99.90;;;;;;5026242;28;20837;-71
2021/04/24 01:11:19;;;;;;;19.77;17.77;;;5.30;99.90;;;;;;5026847;28;20460;-71
2021/04/24 01:13:45;;;;;;;19.60;17.60;;;5.30;99.90;;;;;;5021567;28;20475;-71
2021/04/24 01:16:12;;;;;;;18.23;15.73;;;5.20;99.90;;;;;;5025346;28;20575;-71
2021/04/24 01:18:40;;;;;;;17.97;16.20;;;5.10;99.90;;;;;;5024808;28;20453;-71
2021/04/24 01:21:06;;;;;;;18.63;16.57;;;5.10;99.90;;;;;;5016247;28;20457;-71
2021/04/24 01:23:35;;;;;;;18.53;15.70;;;5.10;99.90;;;;;;5022956;28;20461;-71
2021/04/24 01:26:02;;;;;;;17.33;15.50;;;5.10;99.90;;;;;;5021486;28;20463;-71
2021/04/24 01:28:30;;;;;;;30.17;17.40;;;5.00;99.90;;;;;;5024995;28;20453;-71
2021/04/24 01:30:57;;;;;;;23.70;17.17;;;5.00;99.90;;;;;;5019296;28;20466;-71
2021/04/24 01:33:25;;;;;;;18.40;16.57;;;4.90;99.90;;;;;;5013103;28;20480;-71
2021/04/24 01:35:52;;;;;;;21.20;15.80;;;4.80;99.90;;;;;;5024505;28;20558;-71
2021/04/24 01:38:19;;;;;;;17.70;16.00;;;4.80;99.90;;;;;;5022559;28;20492;-71
2021/04/24 01:40:46;;;;;;;21.17;16.13;;;4.70;99.90;;;;;;5019238;28;20503;-71
2021/04/24 01:43:13;;;;;;;19.50;16.17;;;4.80;99.90;;;;;;5016270;28;20532;-71
2021/04/24 01:45:39;;;;;;;17.57;15.97;;;4.70;99.90;;;;;;5024547;28;20480;-71
2021/04/24 01:48:07;;;;;;;17.30;15.63;;;4.70;99.90;;;;;;5016085;28;20470;-71
2021/04/24 01:50:36;;;;;;;20.23;14.90;;;4.80;99.90;;;;;;5019819;28;20835;-71
2021/04/24 01:53:04;;;;;;;19.93;15.33;;;4.70;99.90;;;;;;5015850;28;20917;-71
2021/04/24 01:55:33;;;;;;;17.80;15.67;;;4.60;99.90;;;;;;5022852;28;21003;-71
2021/04/24 01:58:03;;;;;;;20.43;15.57;;;4.60;99.90;;;;;;5022496;28;20458;-71
2021/04/24 02:00:32;;;;;;;18.33;16.33;;;4.50;99.90;;;;;;5022988;28;20465;-71
2021/04/24 02:03:02;;;;;;;25.50;18.13;;;4.50;99.90;;;;;;5025636;28;20982;-71
2021/04/24 02:05:30;;;;;;;21.63;15.73;;;4.50;99.90;;;;;;5024101;28;20460;-71
2021/04/24 02:07:58;;;;;;;18.53;16.10;;;4.50;99.90;;;;;;5023584;28;20472;-71
2021/04/24 02:10:27;;;;;;;16.73;15.10;;;4.40;99.90;;;;;;5022510;28;20478;-71
2021/04/24 02:12:54;;;;;;;18.20;15.10;;;4.40;99.90;;;;;;5024211;28;20833;-71
2021/04/24 02:15:23;;;;;;;15.20;13.90;;;4.40;99.90;;;;;;5024072;28;20886;-71
2021/04/24 02:17:50;;;;;;;16.57;14.87;;;4.30;99.90;;;;;;5021857;28;20471;-71
2021/04/24 02:20:18;;;;;;;21.13;15.93;;;4.20;99.90;;;;;;5014777;28;20470;-71
2021/04/24 02:22:44;;;;;;;18.07;16.13;;;4.20;99.90;;;;;;5022898;28;20453;-71
2021/04/24 02:25:14;;;;;;;16.70;15.10;;;4.30;99.90;;;;;;5020462;28;20480;-71
2021/04/24 02:27:40;;;;;;;15.83;14.23;;;4.30;99.90;;;;;;5022262;28;20460;-71
2021/04/24 02:30:08;;;;;;;17.03;15.10;;;4.20;99.90;;;;;;5018675;28;20475;-71
2021/04/24 02:32:35;;;;;;;17.37;15.87;;;4.20;99.90;;;;;;5017203;28;20903;-71
2021/04/24 02:35:04;;;;;;;15.27;13.87;;;4.10;99.90;;;;;;5012735;28;20539;-71
2021/04/24 02:37:30;;;;;;;19.77;14.07;;;4.20;99.90;;;;;;5019230;28;20823;-71
2021/04/24 02:39:57;;;;;;;18.33;15.77;;;4.20;99.90;;;;;;5020261;28;20458;-71
2021/04/24 02:42:27;;;;;;;19.37;14.63;;;4.10;99.90;;;;;;5021863;28;20464;-71
2021/04/24 02:44:55;;;;;;;20.80;14.10;;;4.00;99.90;;;;;;5017188;28;20472;-71
2021/04/24 02:47:22;;;;;;;15.77;14.40;;;3.90;99.90;;;;;;5014352;28;20467;-71
2021/04/24 02:49:49;;;;;;;15.93;14.33;;;3.90;99.90;;;;;;5022072;28;20490;-71
2021/04/24 02:52:17;;;;;;;18.67;14.20;;;3.80;99.90;;;;;;5022690;28;20461;-71
2021/04/24 02:54:44;;;;;;;21.63;15.30;;;3.80;99.90;;;;;;5019179;28;20503;-71
2021/04/24 02:57:11;;;;;;;21.50;15.53;;;3.70;99.90;;;;;;5020380;28;20496;-71
2021/04/24 02:59:37;;;;;;;16.80;14.87;;;3.70;99.90;;;;;;5021471;28;20559;-71
2021/04/24 03:02:04;;;;;;;18.27;14.40;;;3.60;99.90;;;;;;5021913;28;20468;-71
2021/04/24 03:04:30;;;;;;;17.30;15.60;;;3.60;99.90;;;;;;5022065;28;20465;-71
2021/04/24 03:06:59;;;;;;;16.13;14.63;;;3.50;99.90;;;;;;5028476;28;20515;-71
2021/04/24 03:09:26;;;;;;;17.03;15.43;;;3.40;99.90;;;;;;5019419;28;20897;-71
2021/04/24 03:11:52;;;;;;;17.27;15.87;;;3.40;99.90;;;;;;5021336;28;20484;-71
2021/04/24 03:14:19;;;;;;;17.47;15.77;;;3.30;99.90;;;;;;5021915;28;20472;-71
2021/04/24 03:16:47;;;;;;;16.37;14.40;;;3.20;99.90;;;;;;5016076;28;20469;-71
2021/04/24 03:19:13;;;;;;;16.53;15.13;;;3.10;99.90;;;;;;5021232;28;20727;-71
2021/04/24 03:21:40;;;;;;;20.63;15.27;;;3.00;99.90;;;;;;5020187;28;20463;-71
2021/04/24 03:24:09;;;;;;;14.90;13.77;;;3.00;99.90;;;;;;5016511;28;20460;-71
2021/04/24 03:26:35;;;;;;;13.17;12.00;;;3.00;99.90;;;;;;5017886;28;20464;-71
2021/04/24 03:29:03;;;;;;;14.83;13.40;;;2.90;99.90;;;;;;5019764;28;20472;-71
2021/04/24 03:31:32;;;;;;;14.47;13.30;;;2.80;99.90;;;;;;5022420;28;21483;-71
2021/04/24 03:33:59;;;;;;;15.27;14.10;;;2.80;99.90;;;;;;5021435;28;20465;-71
2021/04/24 03:36:27;;;;;;;15.10;13.90;;;2.60;99.90;;;;;;5021072;28;20532;-71
2021/04/24 03:38:53;;;;;;;16.17;14.60;;;2.60;99.90;;;;;;5016279;28;20956;-71
2021/04/24 03:41:21;;;;;;;15.67;14.43;;;2.50;99.90;;;;;;5019849;28;20559;-71
2021/04/24 03:43:48;;;;;;;18.60;14.90;;;2.40;99.90;;;;;;5021420;28;20468;-71
2021/04/24 03:46:14;;;;;;;15.60;14.20;;;2.30;99.90;;;;;;5021174;28;20574;-71
2021/04/24 03:48:41;;;;;;;14.67;13.33;;;2.30;99.90;;;;;;5021005;28;20467;-70
2021/04/24 03:51:08;;;;;;;16.83;15.20;;;2.30;99.90;;;;;;5022250;28;20468;-71
2021/04/24 03:53:34;;;;;;;16.07;14.37;;;2.20;99.90;;;;;;5017124;28;20991;-71
2021/04/24 03:56:02;;;;;;;15.90;14.47;;;2.10;99.90;;;;;;5022227;28;20495;-71
2021/04/24 03:58:30;;;;;;;17.37;15.90;;;2.10;99.90;;;;;;5016074;28;20467;-71
2021/04/24 04:00:57;;;;;;;17.00;15.50;;;2.00;99.90;;;;;;5021079;28;21008;-71
2021/04/24 04:03:24;;;;;;;17.00;15.13;;;2.00;99.90;;;;;;5020347;28;20468;-71
2021/04/24 04:05:50;;;;;;;16.80;15.23;;;2.00;99.90;;;;;;5019940;28;20539;-71
2021/04/24 04:08:16;;;;;;;19.90;14.50;;;2.00;99.90;;;;;;5015572;28;20471;-71
2021/04/24 04:10:44;;;;;;;14.70;13.20;;;2.00;99.90;;;;;;5020027;28;20472;-71
2021/04/24 04:13:13;;;;;;;15.40;14.20;;;1.90;99.90;;;;;;5020960;28;20485;-71
2021/04/24 04:15:41;;;;;;;17.63;14.97;;;1.90;99.90;;;;;;5021993;28;20570;-71
2021/04/24 04:18:10;;;;;;;16.30;14.77;;;1.90;99.90;;;;;;5022245;28;20464;-71
2021/04/24 04:20:49;;;;;;;15.83;14.47;;;1.90;99.90;;;;;;5024738;28;20466;-71
2021/04/24 04:23:15;;;;;;;16.30;14.90;;;1.90;99.90;;;;;;5024972;28;20463;-71
2021/04/24 04:25:43;;;;;;;17.50;15.87;;;2.00;99.90;;;;;;5024918;28;21045;-71
2021/04/24 04:28:10;;;;;;;17.90;16.20;;;2.20;99.90;;;;;;5022796;28;21024;-71
2021/04/24 04:30:38;;;;;;;16.60;15.30;;;2.30;99.90;;;;;;5027468;28;20993;-70
2021/04/24 04:33:06;;;;;;;16.23;14.70;;;2.40;99.90;;;;;;5024010;28;20484;-71
2021/04/24 04:35:33;;;;;;;17.27;15.67;;;2.40;99.90;;;;;;5026354;28;20491;-71
2021/04/24 04:38:02;;;;;;;16.80;15.20;;;2.40;99.90;;;;;;5023718;28;20865;-71
2021/04/24 04:40:28;;;;;;;16.20;14.90;;;2.50;99.90;;;;;;5019643;28;20514;-71
2021/04/24 04:42:56;;;;;;;17.60;15.73;;;2.50;99.90;;;;;;5017298;28;20835;-71
2021/04/24 04:45:23;;;;;;;22.60;15.80;;;2.60;99.90;;;;;;5018847;28;20476;-71
2021/04/24 04:47:50;;;;;;;16.20;14.80;;;2.70;99.90;;;;;;5026051;28;20514;-71
2021/04/24 04:50:19;;;;;;;18.10;16.47;;;2.80;99.90;;;;;;5020420;28;20511;-71
2021/04/24 04:52:45;;;;;;;15.87;14.57;;;2.90;99.90;;;;;;5024599;28;20464;-71
2021/04/24 04:55:13;;;;;;;19.13;14.53;;;3.00;99.90;;;;;;5020633;28;20491;-71
2021/04/24 04:57:39;;;;;;;16.23;14.53;;;3.10;99.90;;;;;;5014666;28;20514;-71
2021/04/24 05:00:08;;;;;;;18.80;13.67;;;3.20;99.90;;;;;;5018864;28;20486;-71
2021/04/24 05:02:34;;;;;;;16.90;15.20;;;3.30;99.90;;;;;;5025284;28;20568;-71
2021/04/24 05:05:01;;;;;;;18.00;16.20;;;3.40;99.90;;;;;;5019269;28;20456;-71
2021/04/24 05:07:28;;;;;;;19.30;16.00;;;3.50;99.90;;;;;;5028838;28;20833;-71
2021/04/24 05:09:55;;;;;;;16.60;15.00;;;3.60;99.90;;;;;;5024829;28;20463;-71
2021/04/24 05:12:21;;;;;;;15.93;14.37;;;3.70;99.90;;;;;;5021063;28;20584;-71
2021/04/24 05:14:48;;;;;;;16.03;14.73;;;3.80;99.90;;;;;;5023894;28;20484;-71
2021/04/24 05:17:14;;;;;;;16.47;15.07;;;3.80;99.90;;;;;;5018266;28;20518;-71
2021/04/24 05:19:41;;;;;;;17.57;15.23;;;3.90;99.90;;;;;;5020491;28;20477;-71
2021/04/24 05:22:07;;;;;;;17.37;15.50;;;4.00;99.90;;;;;;5028952;28;20471;-71
2021/04/24 05:24:34;;;;;;;24.53;15.53;;;4.10;99.90;;;;;;5024643;28;20940;-71
2021/04/24 05:27:00;;;;;;;15.60;14.10;;;4.20;99.90;;;;;;5020064;28;20492;-71
2021/04/24 05:29:28;;;;;;;17.20;14.97;;;4.30;99.90;;;;;;5021322;28;21055;-71
2021/04/24 05:31:55;;;;;;;18.23;16.67;;;4.40;99.90;;;;;;5024848;28;20916;-71
2021/04/24 05:34:21;;;;;;;17.57;15.77;;;4.40;99.90;;;;;;5021886;28;20465;-71
2021/04/24 05:36:48;;;;;;;15.67;14.07;;;4.50;99.90;;;;;;5024228;28;20496;-71
2021/04/24 05:39:15;;;;;;;17.20;15.60;;;4.70;99.90;;;;;;5020747;28;20460;-71
2021/04/24 05:41:42;;;;;;;17.60;15.90;;;4.80;99.90;;;;;;5021451;28;20612;-71
2021/04/24 05:44:09;;;;;;;16.27;14.27;;;4.90;99.90;;;;;;5021337;28;20465;-71
2021/04/24 05:46:35;;;;;;;15.23;14.03;;;5.10;99.90;;;;;;5023804;28;20468;-71
2021/04/24 05:49:02;;;;;;;19.30;14.63;;;5.10;99.90;;;;;;5015651;28;20572;-71
2021/04/24 05:51:28;;;;;;;16.67;15.17;;;5.30;99.90;;;;;;5012428;28;20473;-71
2021/04/24 05:53:55;;;;;;;17.10;15.53;;;5.40;99.90;;;;;;5017323;28;20449;-71
2021/04/24 05:56:23;;;;;;;17.90;16.30;;;5.40;99.90;;;;;;5019467;28;20492;-71
2021/04/24 05:58:51;;;;;;;17.30;15.73;;;5.50;99.90;;;;;;5020277;28;20468;-71
2021/04/24 06:01:18;;;;;;;18.03;15.67;;;5.60;99.90;;;;;;5019989;28;20476;-71
2021/04/24 06:03:44;;;;;;;17.33;15.83;;;5.80;99.90;;;;;;5023026;28;20535;-71
2021/04/24 06:06:11;;;;;;;16.80;15.27;;;5.90;99.90;;;;;;5020794;28;20990;-71
2021/04/24 06:08:38;;;;;;;17.60;15.73;;;6.00;99.90;;;;;;5016057;28;20474;-71
2021/04/24 06:11:05;;;;;;;16.47;14.87;;;6.10;99.90;;;;;;5019254;28;20873;-71
2021/04/24 06:13:32;;;;;;;16.87;15.37;;;6.20;99.90;;;;;;5015648;28;20523;-71
2021/04/24 06:16:00;;;;;;;16.37;15.07;;;6.10;99.90;;;;;;5020445;28;20493;-71
2021/04/24 06:18:26;;;;;;;16.50;14.90;;;6.10;99.90;;;;;;5020185;28;20460;-71
2021/04/24 06:20:53;;;;;;;16.57;14.97;;;6.30;99.90;;;;;;5023304;28;20794;-71
2021/04/24 06:23:19;;;;;;;15.33;14.23;;;6.40;99.90;;;;;;5017382;28;20468;-71
2021/04/24 06:25:46;;;;;;;17.13;15.57;;;6.40;99.90;;;;;;5023325;28;20465;-71
2021/04/24 06:28:12;;;;;;;18.07;15.70;;;6.40;99.90;;;;;;5013092;28;20472;-71
2021/04/24 06:30:39;;;;;;;16.70;15.10;;;6.50;99.90;;;;;;5014524;28;20549;-71
2021/04/24 06:33:06;;;;;;;17.70;15.90;;;6.50;99.90;;;;;;5024595;28;21006;-71
2021/04/24 06:35:32;;;;;;;15.77;14.57;;;6.60;99.90;;;;;;5020012;28;20516;-71
2021/04/24 06:37:59;;;;;;;16.60;15.10;;;6.80;99.90;;;;;;5016093;28;20998;-71
2021/04/24 06:40:27;;;;;;;16.30;14.93;;;6.80;99.90;;;;;;5015100;28;20457;-71
2021/04/24 06:42:54;;;;;;;17.20;15.30;;;6.80;99.90;;;;;;5014340;28;20475;-71
2021/04/24 06:45:21;;;;;;;16.30;14.70;;;6.80;99.90;;;;;;5017333;28;20476;-71
2021/04/24 06:47:48;;;;;;;17.07;15.40;;;7.00;99.90;;;;;;5023874;28;20522;-71
2021/04/24 06:50:16;;;;;;;18.03;16.37;;;7.10;99.90;;;;;;5017227;28;20457;-71
2021/04/24 06:52:43;;;;;;;18.30;16.40;;;7.40;99.90;;;;;;5020899;28;20568;-71
2021/04/24 06:55:12;;;;;;;17.40;15.63;;;7.50;99.90;;;;;;5015932;28;20493;-71
2021/04/24 06:57:38;;;;;;;17.40;15.90;;;7.80;99.90;;;;;;5016749;28;20469;-71
2021/04/24 07:00:07;;;;;;;16.87;14.97;;;7.90;99.90;;;;;;5020744;28;20860;-72
2021/04/24 07:02:35;;;;;;;17.00;15.47;;;8.10;99.90;;;;;;5023173;28;20523;-71
2021/04/24 07:05:02;;;;;;;17.33;16.10;;;8.30;99.90;;;;;;5019266;28;20875;-72
2021/04/24 07:07:30;;;;;;;22.63;15.40;;;8.30;99.90;;;;;;5020625;28;20832;-71
2021/04/24 07:09:56;;;;;;;16.87;15.37;;;8.40;99.90;;;;;;5023193;28;20461;-72
2021/04/24 07:12:22;;;;;;;17.13;15.57;;;8.70;99.90;;;;;;5015853;28;20463;-71
2021/04/24 07:14:49;;;;;;;16.13;14.63;;;8.80;99.90;;;;;;5018442;28;20481;-72
2021/04/24 07:17:15;;;;;;;16.50;15.10;;;8.70;99.90;;;;;;5016586;28;20485;-72
2021/04/24 07:19:41;;;;;;;15.70;14.50;;;8.80;99.90;;;;;;5016244;28;20524;-71
2021/04/24 07:22:07;;;;;;;15.93;14.70;;;8.70;99.90;;;;;;5020076;28;20489;-73
2021/04/24 07:24:34;;;;;;;16.73;14.63;;;8.80;99.90;;;;;;5006412;28;20459;-73
2021/04/24 07:27:01;;;;;;;17.93;16.17;;;8.90;99.90;;;;;;5015793;28;21040;-71
2021/04/24 07:29:27;;;;;;;17.00;15.43;;;9.00;99.90;;;;;;5012093;28;20745;-72
2021/04/24 07:31:54;;;;;;;16.60;15.10;;;8.60;99.90;;;;;;5015930;28;20493;-70
2021/04/24 07:34:21;;;;;;;22.17;16.13;;;9.00;99.90;;;;;;5010211;28;20463;-72
2021/04/24 07:36:47;;;;;;;16.43;15.10;;;9.00;99.90;;;;;;5006776;28;20530;-71
2021/04/24 07:39:14;;;;;;;18.50;17.00;;;9.30;99.90;;;;;;5012374;28;20479;-71
2021/04/24 07:41:42;;;;;;;15.60;14.27;;;9.40;99.90;;;;;;5005952;28;20970;-72
2021/04/24 07:44:09;;;;;;;16.67;15.20;;;9.00;99.90;;;;;;5010049;28;20517;-71
2021/04/24 07:46:36;;;;;;;16.30;15.07;;;8.90;99.90;;;;;;5013488;28;20465;-72
2021/04/24 07:49:03;;;;;;;18.40;16.87;;;9.30;99.90;;;;;;5015068;28;20467;-72
2021/04/24 07:51:29;;;;;;;17.87;16.20;;;9.30;99.90;;;;;;5008546;28;20530;-71
2021/04/24 07:53:55;;;;;;;16.47;15.27;;;9.50;99.90;;;;;;5016111;28;20474;-72
2021/04/24 07:56:22;;;;;;;15.93;14.70;;;9.50;99.90;;;;;;5016936;28;20974;-72
2021/04/24 07:58:49;;;;;;;16.17;15.07;;;9.60;99.90;;;;;;5011865;28;20613;-73
2021/04/24 08:01:15;;;;;;;17.30;15.80;;;9.70;99.90;;;;;;5017799;28;20599;-72
2021/04/24 08:03:42;;;;;;;18.30;15.63;;;9.90;99.90;;;;;;5015999;28;20501;-71
2021/04/24 08:06:08;;;;;;;17.57;16.03;;;9.60;99.90;;;;;;5012907;28;20475;-72
2021/04/24 08:08:35;;;;;;;21.93;15.70;;;9.50;99.90;;;;;;5013095;28;20996;-72
2021/04/24 08:11:01;;;;;;;16.80;15.33;;;9.70;99.90;;;;;;5019002;28;20517;-71
2021/04/24 08:13:27;;;;;;;17.00;15.80;;;9.90;99.90;;;;;;5016233;28;20468;-72
2021/04/24 08:15:55;;;;;;;14.70;13.63;;;9.80;99.90;;;;;;5014388;28;20553;-72
2021/04/24 08:18:22;;;;;;;16.40;15.23;;;10.10;99.90;;;;;;5015083;28;20464;-72
2021/04/24 08:20:48;;;;;;;15.40;14.20;;;10.20;99.90;;;;;;5015125;28;20467;-72
2021/04/24 08:23:15;;;;;;;16.20;14.90;;;10.40;99.90;;;;;;5014333;28;20457;-71
2021/04/24 08:25:41;;;;;;;15.53;14.43;;;10.60;99.90;;;;;;5011752;28;20510;-72
2021/04/24 08:28:08;;;;;;;16.33;14.80;;;10.50;99.90;;;;;;5012364;28;20468;-72
2021/04/24 08:30:34;;;;;;;16.97;15.57;;;10.20;99.90;;;;;;5016555;28;20469;-72
2021/04/24 08:33:04;;;;;;;16.63;15.47;;;10.10;99.90;;;;;;5009357;28;20512;-72
2021/04/24 08:35:30;;;;;;;15.63;14.53;;;10.20;99.90;;;;;;5018320;28;20574;-72
2021/04/24 08:37:56;;;;;;;17.30;15.80;;;10.60;99.90;;;;;;5010931;28;20488;-72
2021/04/24 08:40:23;;;;;;;16.30;15.20;;;10.50;99.90;;;;;;5010633;28;20532;-72
2021/04/24 08:42:50;;;;;;;16.93;15.60;;;10.70;99.90;;;;;;5009820;28;21039;-72
2021/04/24 08:45:17;;;;;;;16.30;14.97;;;11.00;99.90;;;;;;5009962;28;20465;-71
2021/04/24 08:47:46;;;;;;;15.67;14.43;;;11.50;99.90;;;;;;5007560;28;21393;-73
2021/04/24 08:50:17;;;;;;;15.57;14.43;;;11.60;99.90;;;;;;5009846;28;20488;-72
2021/04/24 08:52:44;;;;;;;16.70;15.20;;;12.20;99.90;;;;;;5013769;28;20473;-72
2021/04/24 08:55:15;;;;;;;16.30;14.03;;;13.10;99.90;;;;;;5013841;28;20501;-72
2021/04/24 08:57:42;;;;;;;16.27;14.87;;;12.90;99.70;;;;;;5015645;28;20469;-71
2021/04/24 09:00:10;;;;;;;15.37;14.23;;;13.70;98.80;;;;;;5012669;28;20465;-71
2021/04/24 09:02:36;;;;;;;15.53;14.53;;;13.10;98.50;;;;;;5015897;28;20507;-70
2021/04/24 09:05:04;;;;;;;15.03;14.03;;;13.70;97.90;;;;;;5012993;28;20488;-72
2021/04/24 09:07:31;;;;;;;16.03;15.03;;;14.00;96.50;;;;;;5013106;28;20464;-71
2021/04/24 09:09:58;;;;;;;17.20;15.40;;;14.40;97.80;;;;;;5011954;28;20892;-72
2021/04/24 09:12:38;;;;;;;16.93;15.73;;;14.60;95.80;;;;;;5018180;28;20457;-71
2021/04/24 09:15:13;;;;;;;16.40;15.30;;;14.60;95.40;;;;;;5009968;28;20493;-72
2021/04/24 09:17:56;;;;;;;17.97;16.80;;;14.90;94.10;;;;;;5018843;28;20460;-72
2021/04/24 09:20:23;;;;;;;17.00;15.70;;;14.60;94.80;;;;;;5015453;28;20464;-72
2021/04/24 09:23:03;;;;;;;17.00;15.70;;;14.50;94.80;;;;;;5018394;28;21922;-72
2021/04/24 09:25:37;;;;;;;16.37;15.10;;;15.10;93.90;;;;;;5020000;28;20464;-71
2021/04/24 09:28:05;;;;;;;17.27;15.87;;;15.00;94.50;;;;;;5022439;28;20942;-73
2021/04/24 09:30:33;;;;;;;18.77;16.90;;;14.80;94.60;;;;;;5016020;28;20470;-72
2021/04/24 09:33:05;;;;;;;16.07;15.00;;;14.70;94.60;;;;;;5007176;28;20485;-72
2021/04/24 09:35:44;;;;;;;17.17;15.77;;;15.00;94.10;;;;;;5014903;28;20988;-72
2021/04/24 09:38:17;;;;;;;18.00;16.70;;;15.90;93.40;;;;;;5016737;28;20496;-71
2021/04/24 09:40:55;;;;;;;18.80;15.40;;;15.80;92.00;;;;;;5010019;28;20502;-71
2021/04/24 09:43:22;;;;;;;19.57;17.87;;;15.80;92.40;;;;;;5009599;28;20502;-72
2021/04/24 09:45:48;;;;;;;16.60;15.50;;;16.00;92.60;;;;;;5008316;28;20481;-72
2021/04/24 09:48:23;;;;;;;17.23;15.97;;;15.40;91.50;;;;;;5010130;28;20662;-71
2021/04/24 09:50:50;;;;;;;17.13;15.87;;;16.00;90.20;;;;;;5014083;28;20460;-72
2021/04/24 09:53:19;;;;;;;16.80;15.50;;;16.20;90.50;;;;;;5012871;28;20465;-72
2021/04/24 09:55:47;;;;;;;18.00;16.60;;;16.30;90.10;;;;;;5017608;28;22557;-72
2021/04/24 09:58:28;;;;;;;16.33;15.00;;;16.60;87.30;;;;;;5021446;28;20549;-72
2021/04/24 10:00:58;;;;;;;19.00;16.00;;;16.40;85.00;;;;;;5011988;28;20515;-72
2021/04/24 10:03:38;;;;;;;16.30;15.20;;;16.20;84.20;;;;;;5017011;28;20463;-71
2021/04/24 10:06:28;;;;;;;16.63;15.00;;;15.50;85.60;;;;;;5016454;28;20464;-72
2021/04/24 10:09:18;;;;;;;15.10;14.10;;;16.50;86.40;;;;;;5013707;28;20508;-72
2021/04/24 10:11:48;;;;;;;16.17;14.97;;;15.60;85.70;;;;;;5009609;28;20492;-72
2021/04/24 10:14:26;;;;;;;17.50;16.10;;;15.50;85.30;;;;;;5011432;28;20485;-72
2021/04/24 10:16:52;;;;;;;17.23;15.87;;;15.50;87.50;;;;;;5010686;28;20488;-71
2021/04/24 10:19:19;;;;;;;17.40;15.77;;;15.50;87.00;;;;;;5015038;28;20469;-72
2021/04/24 10:21:46;;;;;;;16.60;15.50;;;16.20;87.80;;;;;;5011330;28;20461;-72
2021/04/24 10:24:13;;;;;;;16.17;15.17;;;16.10;85.80;;;;;;5011961;28;20465;-72
2021/04/24 10:26:42;;;;;;;15.37;14.17;;;15.60;83.00;;;;;;5006827;28;20461;-72
2021/04/24 10:29:09;;;;;;;15.90;14.80;;;15.60;83.00;;;;;;5010934;28;20580;-72
2021/04/24 10:31:36;;;;;;;16.10;14.67;;;16.30;82.50;;;;;;5016490;28;20796;-72
2021/04/24 10:34:05;;;;;;;15.50;14.20;;;16.40;81.60;;;;;;5019526;28;20464;-72
2021/04/24 10:36:32;;;;;;;16.07;14.93;;;16.10;81.30;;;;;;5018216;28;20504;-72
2021/04/24 10:39:00;;;;;;;16.63;15.53;;;15.80;80.90;;;;;;5017578;28;20979;-72
2021/04/24 10:41:31;;;;;;;16.40;15.00;;;15.50;82.10;;;;;;5020670;28;20550;-72
2021/04/24 10:44:00;;;;;;;16.37;15.03;;;16.20;80.20;;;;;;5016202;28;20470;-72
2021/04/24 10:46:29;;;;;;;15.40;14.40;;;16.70;78.30;;;;;;5010811;28;20458;-72
2021/04/24 10:49:16;;;;;;;15.93;14.67;;;16.10;80.40;;;;;;5017912;28;20960;-72
2021/04/24 10:51:57;;;;;;;16.50;15.20;;;17.00;79.20;;;;;;5018474;28;20463;-72
2021/04/24 10:54:25;;;;;;;16.03;14.80;;;17.10;78.60;;;;;;5010174;28;20462;-72
2021/04/24 10:56:51;;;;;;;15.53;14.53;;;17.50;77.30;;;;;;5014502;28;21100;-72
2021/04/24 10:59:20;;;;;;;15.60;14.50;;;16.80;75.30;;;;;;5013039;28;20469;-72
2021/04/24 11:02:05;;;;;;;15.83;14.53;;;17.50;76.70;;;;;;5015777;28;20464;-72
2021/04/24 11:04:49;;;;;;;15.77;14.67;;;18.60;75.50;;;;;;5014216;28;20457;-72
2021/04/24 11:07:21;;;;;;;15.13;13.93;;;19.10;73.20;;;;;;5014588;28;20468;-72
2021/04/24 11:10:25;;;;;;;14.90;13.77;;;19.50;71.30;;;;;;5012472;28;20472;-72
2021/04/24 11:12:53;;;;;;;15.73;14.67;;;19.10;69.60;;;;;;5008412;28;20500;-72
2021/04/24 11:15:22;;;;;;;15.23;13.97;;;18.90;70.80;;;;;;5019776;28;20485;-72
2021/04/24 11:17:50;;;;;;;14.30;13.43;;;18.30;68.40;;;;;;5021715;28;20547;-72
2021/04/24 11:20:48;;;;;;;14.33;13.50;;;18.20;69.70;;;;;;5011475;28;20466;-72
2021/04/24 11:23:54;;;;;;;14.30;13.40;;;18.10;69.00;;;;;;5014215;28;20861;-72
2021/04/24 11:26:46;;;;;;;15.77;14.77;;;18.30;68.30;;;;;;5012944;28;20632;-72
2021/04/24 11:29:14;;;;;;;14.40;13.60;;;17.80;69.20;;;;;;5012757;28;20555;-72
2021/04/24 11:32:00;;;;;;;14.97;13.83;;;18.90;69.30;;;;;;5006443;28;20479;-73
2021/04/24 11:34:30;;;;;;;14.93;13.83;;;19.30;67.10;;;;;;5009336;28;20541;-72
2021/04/24 11:37:26;;;;;;;15.30;14.30;;;18.20;66.50;;;;;;5006263;28;21065;-72
2021/04/24 11:40:15;;;;;;;14.27;13.37;;;18.20;68.50;;;;;;4993422;28;20486;-72
2021/04/24 11:43:01;;;;;;;15.87;14.40;;;18.30;66.10;;;;;;5014332;28;20471;-72
2021/04/24 11:46:05;;;;;;;15.27;13.83;;;18.90;64.20;;;;;;5014230;28;20567;-72
2021/04/24 11:49:01;;;;;;;14.60;13.70;;;18.70;65.10;;;;;;5015087;28;20486;-72
2021/04/24 11:51:39;;;;;;;15.50;14.37;;;18.00;67.60;;;;;;5014727;28;20469;-72
2021/04/24 11:54:07;;;;;;;14.20;13.30;;;18.70;64.80;;;;;;5007886;28;20991;-72
2021/04/24 11:56:34;;;;;;;14.00;13.20;;;18.90;64.50;;;;;;5013573;28;21035;-72
2021/04/24 11:59:01;;;;;;;13.97;13.07;;;19.00;62.20;;;;;;5011646;28;20925;-72
2021/04/24 12:01:29;;;;;;;14.23;13.23;;;18.70;62.60;;;;;;5015113;28;20472;-72
2021/04/24 12:03:56;;;;;;;15.40;14.27;;;18.90;62.60;;;;;;5011570;28;20571;-72
2021/04/24 12:06:37;;;;;;;15.87;14.40;;;19.40;62.00;;;;;;5006360;28;20551;-72
2021/04/24 12:09:06;;;;;;;15.27;14.17;;;19.50;61.00;;;;;;5008939;28;20457;-72
2021/04/24 12:11:33;;;;;;;13.43;12.53;;;20.00;61.90;;;;;;5010434;28;20462;-72
2021/04/24 12:13:59;;;;;;;14.00;13.03;;;20.30;62.50;;;;;;5011472;28;20465;-73
2021/04/24 12:16:44;;;;;;;14.17;13.17;;;20.40;60.50;;;;;;5014450;28;20485;-72
2021/04/24 12:19:29;;;;;;;14.70;13.90;;;20.40;58.10;;;;;;5014335;28;20808;-73
2021/04/24 12:22:17;;;;;;;16.20;14.90;;;19.50;59.80;;;;;;5014508;28;20468;-72
2021/04/24 12:25:05;;;;;;;15.10;14.00;;;19.70;60.10;;;;;;5013676;28;20464;-72
2021/04/24 12:27:38;;;;;;;14.60;13.60;;;19.40;60.00;;;;;;5005215;28;21127;-72
2021/04/24 12:30:08;;;;;;;14.50;13.60;;;19.80;59.80;;;;;;5012796;28;20936;-72
2021/04/24 12:32:37;;;;;;;14.27;13.27;;;19.90;59.00;;;;;;5012322;28;20489;-72
2021/04/24 12:35:18;;;;;;;13.57;12.87;;;20.30;59.70;;;;;;5014968;28;20551;-73
2021/04/24 12:37:48;;;;;;;16.33;13.80;;;20.50;58.40;;;;;;5019703;28;20496;-73
2021/04/24 12:40:18;;;;;;;14.00;13.00;;;20.90;58.10;;;;;;5020986;28;20873;-72
2021/04/24 12:42:46;;;;;;;15.10;13.90;;;20.80;59.10;;;;;;5014800;28;20462;-72